Time;durP1;ratioP1;P1;durP2;ratioP2;P2;SDS_P1;SDS_P2;PMS_P1;PMS_P2;Temp;Humidity;BMP_temperature;BMP_pressure;BME280_temperature;BME280_humidity;BME280_pressure;Samples;Min_cycle;Max_cycle;Signal;HPM_P1;HPM_P2
2023/04/13 00:00:32;;;;;;;5.87;5.50;;;6.50;99.90;;;;;;5002083;28;20181;-65
2023/04/13 00:02:59;;;;;;;4.97;4.77;;;6.60;99.90;;;;;;5006415;28;20552;-65
2023/04/13 00:05:25;;;;;;;5.47;5.27;;;6.70;99.90;;;;;;4999919;28;20200;-64
2023/04/13 00:07:50;;;;;;;4.90;4.70;;;6.80;99.90;;;;;;5004820;28;20203;-64
2023/04/13 00:10:17;;;;;;;5.53;5.23;;;6.90;99.90;;;;;;5012663;28;20669;-63
2023/04/13 00:12:46;;;;;;;5.33;5.13;;;7.10;99.90;;;;;;5010356;28;20169;-63
2023/04/13 00:15:16;;;;;;;5.90;5.67;;;7.20;99.90;;;;;;5014462;28;20535;-64
2023/04/13 00:17:42;;;;;;;6.03;5.83;;;7.30;99.90;;;;;;5008105;28;20200;-65
2023/04/13 00:20:12;;;;;;;6.07;5.67;;;7.30;99.90;;;;;;5012715;28;20262;-65
2023/04/13 00:22:42;;;;;;;5.60;5.40;;;7.40;99.90;;;;;;5014504;28;20183;-64
2023/04/13 00:25:09;;;;;;;7.23;6.83;;;7.50;99.90;;;;;;5002416;28;20193;-65
2023/04/13 00:27:37;;;;;;;5.60;5.40;;;7.60;99.90;;;;;;4994947;28;20215;-64
2023/04/13 00:30:11;;;;;;;7.07;6.73;;;7.70;99.90;;;;;;5006798;28;20204;-64
2023/04/13 00:32:38;;;;;;;6.33;6.03;;;7.70;99.90;;;;;;5004300;28;20181;-63
2023/04/13 00:35:04;;;;;;;5.53;5.33;;;7.80;99.90;;;;;;4994706;28;20220;-65
2023/04/13 00:37:31;;;;;;;4.90;4.70;;;7.90;99.90;;;;;;5002727;28;20192;-64
2023/04/13 00:39:58;;;;;;;5.57;5.27;;;7.90;99.90;;;;;;5012920;28;20188;-65
2023/04/13 00:42:24;;;;;;;6.10;5.83;;;8.00;99.90;;;;;;5012781;28;20192;-63
2023/04/13 00:44:54;;;;;;;5.80;5.60;;;8.00;99.90;;;;;;5003536;28;20487;-63
2023/04/13 00:47:26;;;;;;;5.13;4.93;;;8.00;99.90;;;;;;5009636;28;20215;-63
2023/04/13 00:49:57;;;;;;;5.47;5.27;;;8.10;99.90;;;;;;4995238;28;20201;-63
2023/04/13 00:52:22;;;;;;;5.37;5.17;;;8.10;99.90;;;;;;4994752;28;20235;-65
2023/04/13 00:54:55;;;;;;;4.90;4.70;;;8.10;99.90;;;;;;5009046;28;20199;-63
2023/04/13 00:57:21;;;;;;;4.73;4.53;;;8.10;99.90;;;;;;5014361;28;20616;-63
2023/04/13 00:59:48;;;;;;;5.00;4.80;;;8.10;99.90;;;;;;4996623;28;20588;-63
2023/04/13 01:02:23;;;;;;;5.60;5.40;;;8.10;99.90;;;;;;4997972;28;20240;-64
2023/04/13 01:04:49;;;;;;;5.37;5.07;;;8.00;99.90;;;;;;4994839;28;20211;-65
2023/04/13 01:07:26;;;;;;;6.00;5.73;;;8.00;99.90;;;;;;4994400;28;20224;-64
2023/04/13 01:10:16;;;;;;;7.33;7.03;;;8.00;99.90;;;;;;5002169;28;20211;-64
2023/04/13 01:12:58;;;;;;;4.90;4.70;;;8.00;99.90;;;;;;5013940;28;20320;-64
2023/04/13 01:15:26;;;;;;;6.10;5.90;;;8.00;99.90;;;;;;5011809;28;20187;-65
2023/04/13 01:17:56;;;;;;;4.80;4.60;;;8.00;99.90;;;;;;5013563;28;20230;-64
2023/04/13 01:20:25;;;;;;;4.80;4.60;;;8.00;99.90;;;;;;4997758;28;20635;-65
2023/04/13 01:22:56;;;;;;;5.50;5.30;;;8.00;99.90;;;;;;4993998;28;20176;-64
2023/04/13 01:25:46;;;;;;;4.60;4.40;;;8.00;99.90;;;;;;5008726;28;20191;-64
2023/04/13 01:28:17;;;;;;;5.00;4.80;;;8.10;99.90;;;;;;5013722;28;20531;-65
2023/04/13 01:30:44;;;;;;;4.77;4.57;;;8.00;99.90;;;;;;5011325;28;20212;-64
2023/04/13 01:33:11;;;;;;;5.87;4.53;;;8.10;99.90;;;;;;5013261;28;20646;-65
2023/04/13 01:35:37;;;;;;;5.10;4.90;;;8.10;99.90;;;;;;5000619;28;20192;-64
2023/04/13 01:38:05;;;;;;;5.00;4.80;;;8.10;99.90;;;;;;5013192;28;20184;-64
2023/04/13 01:40:35;;;;;;;5.27;4.80;;;8.00;99.90;;;;;;5011808;28;20183;-65
2023/04/13 01:43:01;;;;;;;4.90;4.70;;;8.00;99.90;;;;;;5007262;28;20210;-64
2023/04/13 01:45:48;;;;;;;5.30;4.80;;;8.00;99.90;;;;;;5012844;28;20214;-65
2023/04/13 01:48:17;;;;;;;5.00;4.80;;;8.00;99.90;;;;;;4997613;28;20200;-64
2023/04/13 01:50:47;;;;;;;5.00;4.80;;;8.00;99.90;;;;;;4992093;28;20770;-64
2023/04/13 01:53:21;;;;;;;4.97;4.77;;;8.00;99.90;;;;;;4993464;28;20172;-65
2023/04/13 01:55:48;;;;;;;4.77;4.57;;;8.10;99.90;;;;;;5009604;28;20656;-64
2023/04/13 01:58:17;;;;;;;4.67;4.47;;;8.00;99.90;;;;;;5012540;28;20215;-64
2023/04/13 02:00:44;;;;;;;4.90;4.70;;;8.10;99.90;;;;;;4999953;28;20197;-64
2023/04/13 02:03:11;;;;;;;5.43;5.00;;;8.10;99.90;;;;;;5004079;28;20195;-65
2023/04/13 02:05:37;;;;;;;5.00;4.80;;;8.10;99.90;;;;;;4997890;28;20184;-64
2023/04/13 02:08:04;;;;;;;5.10;4.87;;;8.10;99.90;;;;;;5002497;28;20195;-65
2023/04/13 02:10:31;;;;;;;5.10;4.90;;;8.10;99.90;;;;;;5000617;28;20219;-65
2023/04/13 02:12:57;;;;;;;4.87;4.67;;;8.10;99.90;;;;;;5008706;28;20180;-65
2023/04/13 02:15:23;;;;;;;5.47;5.20;;;8.10;99.90;;;;;;5008196;28;20169;-64
2023/04/13 02:17:49;;;;;;;5.20;5.00;;;8.10;99.90;;;;;;4993003;28;20272;-65
2023/04/13 02:20:15;;;;;;;5.53;5.30;;;8.20;99.90;;;;;;5004420;28;20234;-65
2023/04/13 02:22:42;;;;;;;6.43;5.30;;;8.20;99.90;;;;;;5012224;28;20728;-64
2023/04/13 02:25:14;;;;;;;4.40;4.20;;;8.20;99.90;;;;;;4995391;28;20180;-65
2023/04/13 02:27:40;;;;;;;4.80;4.60;;;8.20;99.90;;;;;;5003582;28;20196;-63
2023/04/13 02:30:08;;;;;;;5.10;4.90;;;8.20;99.90;;;;;;4992255;28;20201;-65
2023/04/13 02:32:40;;;;;;;6.33;5.73;;;8.20;99.90;;;;;;5000008;28;20172;-64
2023/04/13 02:35:10;;;;;;;6.07;5.00;;;8.30;99.90;;;;;;5001226;28;20219;-64
2023/04/13 02:37:39;;;;;;;6.33;5.93;;;8.30;99.90;;;;;;5003358;28;20200;-64
2023/04/13 02:40:08;;;;;;;4.73;4.47;;;8.30;99.90;;;;;;4992022;28;20184;-64
2023/04/13 02:42:33;;;;;;;4.53;4.33;;;8.30;99.90;;;;;;4992546;28;20189;-64
2023/04/13 02:44:59;;;;;;;4.47;4.27;;;8.30;99.90;;;;;;5001803;28;20195;-65
2023/04/13 02:47:25;;;;;;;5.57;5.00;;;8.20;99.90;;;;;;5012213;28;20204;-64
2023/04/13 02:49:51;;;;;;;4.90;4.70;;;8.20;99.90;;;;;;4994828;28;20192;-65
2023/04/13 02:52:16;;;;;;;5.40;4.90;;;8.20;99.90;;;;;;5010291;28;20655;-66
2023/04/13 02:54:42;;;;;;;5.23;4.93;;;8.20;99.90;;;;;;5004200;28;20188;-65
2023/04/13 02:57:12;;;;;;;4.70;4.50;;;8.20;99.90;;;;;;4996324;28;20192;-65
2023/04/13 02:59:40;;;;;;;4.90;4.70;;;8.20;99.90;;;;;;5007837;28;20642;-64
2023/04/13 03:02:07;;;;;;;5.60;5.40;;;8.20;99.90;;;;;;4994401;28;20181;-64
2023/04/13 03:04:33;;;;;;;4.70;4.50;;;8.20;99.90;;;;;;5005743;28;20181;-65
2023/04/13 03:06:58;;;;;;;5.00;4.60;;;8.20;99.90;;;;;;5006682;28;20222;-64
2023/04/13 03:09:25;;;;;;;5.30;5.10;;;8.20;99.90;;;;;;5009879;28;20187;-64
2023/04/13 03:11:51;;;;;;;5.00;4.60;;;8.20;99.90;;;;;;5009281;28;20196;-65
2023/04/13 03:14:20;;;;;;;4.80;4.60;;;8.20;99.90;;;;;;4990873;28;20711;-64
2023/04/13 03:16:46;;;;;;;5.37;4.93;;;8.20;99.90;;;;;;4993228;28;20266;-65
2023/04/13 03:19:12;;;;;;;5.00;4.70;;;8.20;99.90;;;;;;4992480;28;20267;-65
2023/04/13 03:21:37;;;;;;;5.40;5.20;;;8.30;99.90;;;;;;4992127;28;20614;-63
2023/04/13 03:24:04;;;;;;;6.37;6.10;;;8.30;99.90;;;;;;4993487;28;20193;-64
2023/04/13 03:26:29;;;;;;;6.30;6.00;;;8.30;99.90;;;;;;4992022;28;20552;-63
2023/04/13 03:28:55;;;;;;;5.50;5.20;;;8.30;99.90;;;;;;4992998;28;20226;-64
2023/04/13 03:31:21;;;;;;;4.97;4.77;;;8.30;99.90;;;;;;4991558;28;20266;-64
2023/04/13 03:33:46;;;;;;;4.77;4.53;;;8.30;99.90;;;;;;5001425;28;20181;-65
2023/04/13 03:36:12;;;;;;;5.37;5.10;;;8.20;99.90;;;;;;5000802;28;20215;-65
2023/04/13 03:38:38;;;;;;;5.23;5.03;;;8.20;99.90;;;;;;5011402;28;20180;-64
2023/04/13 03:41:04;;;;;;;6.03;5.73;;;8.20;99.90;;;;;;5009339;28;20263;-65
2023/04/13 03:43:30;;;;;;;5.10;4.90;;;8.20;99.90;;;;;;5011307;28;20180;-65
2023/04/13 03:45:55;;;;;;;4.67;4.47;;;8.20;99.90;;;;;;5010794;28;20681;-64
2023/04/13 03:48:21;;;;;;;4.97;4.77;;;8.10;99.90;;;;;;5011865;28;20180;-64
2023/04/13 03:50:47;;;;;;;5.57;5.17;;;8.20;99.90;;;;;;4995364;28;20205;-64
2023/04/13 03:53:12;;;;;;;5.27;5.00;;;8.20;99.90;;;;;;4991633;28;20190;-64
2023/04/13 03:55:38;;;;;;;6.27;5.93;;;8.20;99.90;;;;;;5007030;28;20180;-65
2023/04/13 03:58:03;;;;;;;5.30;5.10;;;8.20;99.90;;;;;;5003652;28;20662;-65
2023/04/13 04:00:29;;;;;;;6.40;6.10;;;8.20;99.90;;;;;;4998292;28;20657;-63
2023/04/13 04:02:55;;;;;;;4.93;4.73;;;8.20;99.90;;;;;;4995501;28;20410;-63
2023/04/13 04:05:21;;;;;;;4.70;4.50;;;8.20;99.90;;;;;;5004373;28;20219;-64
2023/04/13 04:07:46;;;;;;;4.60;4.40;;;8.20;99.90;;;;;;5008267;28;20572;-65
2023/04/13 04:10:12;;;;;;;5.20;4.90;;;8.20;99.90;;;;;;4991072;28;20296;-64
2023/04/13 04:12:37;;;;;;;5.10;4.90;;;8.20;99.90;;;;;;4992402;28;20171;-64
2023/04/13 04:15:04;;;;;;;5.20;4.90;;;8.20;99.90;;;;;;5010291;28;20169;-63
2023/04/13 04:17:30;;;;;;;7.13;6.83;;;8.10;99.90;;;;;;4995301;28;20595;-63
2023/04/13 04:19:55;;;;;;;6.00;5.80;;;8.00;99.90;;;;;;5003718;28;20212;-63
2023/04/13 04:22:21;;;;;;;5.60;5.33;;;8.00;99.90;;;;;;4995270;28;20193;-65
2023/04/13 04:24:48;;;;;;;5.67;5.37;;;7.90;99.90;;;;;;5011915;28;20233;-65
2023/04/13 04:27:14;;;;;;;5.67;5.20;;;7.90;99.90;;;;;;5009902;28;20208;-66
2023/04/13 04:29:39;;;;;;;5.70;5.50;;;7.90;99.90;;;;;;5001020;28;20181;-66
2023/04/13 04:32:09;;;;;;;4.97;4.77;;;8.00;99.90;;;;;;5010589;28;20230;-66
2023/04/13 04:34:35;;;;;;;5.80;5.60;;;8.00;99.90;;;;;;5007632;28;20173;-65
2023/04/13 04:37:04;;;;;;;6.17;5.87;;;8.00;99.90;;;;;;4994790;28;20208;-65
2023/04/13 04:39:33;;;;;;;5.90;5.70;;;8.00;99.90;;;;;;4999321;28;20569;-64
2023/04/13 04:42:02;;;;;;;5.70;5.50;;;8.10;99.90;;;;;;5014521;28;20631;-64
2023/04/13 04:44:31;;;;;;;4.80;4.60;;;8.10;99.90;;;;;;5010976;28;20631;-65
2023/04/13 04:46:58;;;;;;;5.30;5.10;;;8.10;99.90;;;;;;5013993;28;20274;-64
2023/04/13 04:49:28;;;;;;;5.50;5.20;;;8.10;99.90;;;;;;5008535;28;20185;-64
2023/04/13 04:51:54;;;;;;;5.10;4.90;;;8.10;99.90;;;;;;4993316;28;20300;-65
2023/04/13 04:54:20;;;;;;;5.37;5.07;;;8.10;99.90;;;;;;4999128;28;20184;-64
2023/04/13 04:56:52;;;;;;;5.93;5.70;;;8.00;99.90;;;;;;5014111;28;20724;-64
2023/04/13 04:59:21;;;;;;;6.93;6.63;;;8.00;99.90;;;;;;5013071;28;20192;-64
2023/04/13 05:01:48;;;;;;;5.07;4.87;;;8.00;99.90;;;;;;5010764;28;20186;-65
2023/04/13 05:04:14;;;;;;;5.10;4.80;;;7.90;99.90;;;;;;5012992;28;20215;-65
2023/04/13 05:06:40;;;;;;;5.10;4.90;;;7.90;99.90;;;;;;4994285;28;20266;-65
2023/04/13 05:09:06;;;;;;;5.20;5.00;;;7.90;99.90;;;;;;4996829;28;20192;-65
2023/04/13 05:11:32;;;;;;;5.00;4.80;;;7.90;99.90;;;;;;5013533;28;20236;-66
2023/04/13 05:13:58;;;;;;;5.60;5.10;;;7.90;99.90;;;;;;5012043;28;20180;-66
2023/04/13 05:16:24;;;;;;;4.90;4.70;;;7.90;99.90;;;;;;5013818;28;20192;-65
2023/04/13 05:18:50;;;;;;;5.20;5.00;;;7.90;99.90;;;;;;4998944;28;20181;-66
2023/04/13 05:21:17;;;;;;;5.10;4.80;;;7.90;99.90;;;;;;5009733;28;20188;-64
2023/04/13 05:23:43;;;;;;;5.27;5.07;;;7.90;99.90;;;;;;4995926;28;20185;-65
2023/04/13 05:26:10;;;;;;;4.80;4.60;;;7.90;99.90;;;;;;5012113;28;20204;-66
2023/04/13 05:28:40;;;;;;;5.73;5.30;;;8.00;99.90;;;;;;4994564;28;20188;-65
2023/04/13 05:31:07;;;;;;;5.27;4.87;;;8.00;99.90;;;;;;4998493;28;20307;-65
2023/04/13 05:33:33;;;;;;;4.80;4.60;;;8.10;99.90;;;;;;5009924;28;20678;-64
2023/04/13 05:36:00;;;;;;;5.53;5.23;;;8.10;99.90;;;;;;5004668;28;20228;-65
2023/04/13 05:38:25;;;;;;;5.43;5.13;;;8.10;99.90;;;;;;5011634;28;20176;-66
2023/04/13 05:40:52;;;;;;;4.70;4.50;;;8.20;99.90;;;;;;5013304;28;20180;-65
2023/04/13 05:43:19;;;;;;;4.70;4.40;;;8.20;99.90;;;;;;5012920;28;20219;-65
2023/04/13 05:45:44;;;;;;;4.60;4.40;;;8.20;99.90;;;;;;5012612;28;20176;-65
2023/04/13 05:48:10;;;;;;;5.63;5.23;;;8.20;99.90;;;;;;5012412;28;20319;-65
2023/04/13 05:50:36;;;;;;;5.20;5.00;;;8.20;99.90;;;;;;5001496;28;20215;-66
2023/04/13 05:53:04;;;;;;;5.00;4.80;;;8.20;99.90;;;;;;5012253;28;20180;-66
2023/04/13 05:55:29;;;;;;;4.60;4.40;;;8.10;99.90;;;;;;4995649;28;20521;-65
2023/04/13 05:57:55;;;;;;;4.60;4.40;;;8.10;99.90;;;;;;4993953;28;20211;-64
2023/04/13 06:00:21;;;;;;;5.07;4.87;;;8.10;99.90;;;;;;5002750;28;20184;-65
2023/04/13 06:02:48;;;;;;;4.80;4.60;;;8.10;99.90;;;;;;5003893;28;20243;-63
2023/04/13 06:05:17;;;;;;;5.37;5.07;;;8.20;99.90;;;;;;5003926;28;20191;-64
2023/04/13 06:07:46;;;;;;;4.80;4.60;;;8.10;99.90;;;;;;5004792;28;20238;-65
2023/04/13 06:10:15;;;;;;;4.77;4.57;;;8.20;99.90;;;;;;4993633;28;20216;-64
2023/04/13 06:12:41;;;;;;;4.87;4.47;;;8.20;99.90;;;;;;5001711;28;20184;-65
2023/04/13 06:15:08;;;;;;;5.10;4.80;;;8.30;99.90;;;;;;4995471;28;20263;-64
2023/04/13 06:17:33;;;;;;;6.50;6.20;;;8.30;99.90;;;;;;5011775;28;20196;-64
2023/04/13 06:19:59;;;;;;;4.90;4.70;;;8.50;99.90;;;;;;4992546;28;20188;-64
2023/04/13 06:22:25;;;;;;;7.57;7.17;;;8.60;99.90;;;;;;4993342;28;20255;-65
2023/04/13 06:24:50;;;;;;;6.53;6.20;;;8.60;99.90;;;;;;5010782;28;20183;-65
2023/04/13 06:27:17;;;;;;;5.30;5.10;;;8.60;99.90;;;;;;5007186;28;20549;-65
2023/04/13 06:29:43;;;;;;;6.73;6.20;;;8.70;99.90;;;;;;5005547;28;20204;-64
2023/04/13 06:32:09;;;;;;;5.43;5.23;;;8.90;99.90;;;;;;5009308;28;20612;-64
2023/04/13 06:34:34;;;;;;;5.70;5.30;;;9.00;99.90;;;;;;4992074;28;20268;-65
2023/04/13 06:37:01;;;;;;;5.63;5.33;;;9.00;99.90;;;;;;4991327;28;20349;-65
2023/04/13 06:39:27;;;;;;;5.30;5.10;;;9.00;99.90;;;;;;5010712;28;20176;-65
2023/04/13 06:41:53;;;;;;;5.63;5.30;;;9.00;99.90;;;;;;5012306;28;20188;-65
2023/04/13 06:44:18;;;;;;;5.20;5.00;;;9.10;99.90;;;;;;4992941;28;20534;-65
2023/04/13 06:46:44;;;;;;;6.00;5.70;;;9.20;99.90;;;;;;5001654;28;20310;-64
2023/04/13 06:49:10;;;;;;;4.50;4.30;;;9.30;99.90;;;;;;5011690;28;20263;-65
2023/04/13 06:51:36;;;;;;;4.93;4.73;;;9.50;99.90;;;;;;5003843;28;20201;-65
2023/04/13 06:54:02;;;;;;;4.30;4.10;;;9.60;99.90;;;;;;4992106;28;20199;-65
2023/04/13 06:56:28;;;;;;;4.83;4.63;;;9.70;99.90;;;;;;4998055;28;20263;-66
2023/04/13 06:58:57;;;;;;;4.60;4.40;;;10.00;99.90;;;;;;5011410;28;20176;-64
2023/04/13 07:01:24;;;;;;;4.00;3.80;;;10.10;99.90;;;;;;5008975;28;20638;-65
2023/04/13 07:03:50;;;;;;;4.43;4.23;;;10.30;99.90;;;;;;5011231;28;20684;-65
2023/04/13 07:06:15;;;;;;;4.70;4.40;;;10.50;99.90;;;;;;5005136;28;20197;-64
2023/04/13 07:08:41;;;;;;;4.50;4.10;;;10.50;99.90;;;;;;5000143;28;20207;-65
2023/04/13 07:11:06;;;;;;;4.30;4.10;;;10.60;99.90;;;;;;5009523;28;20208;-67
2023/04/13 07:13:32;;;;;;;4.30;4.10;;;10.50;99.90;;;;;;4992157;28;20552;-65
2023/04/13 07:15:58;;;;;;;4.40;4.20;;;10.40;99.90;;;;;;4994831;28;20569;-64
2023/04/13 07:18:23;;;;;;;4.63;4.27;;;10.30;99.90;;;;;;5011882;28;20180;-64
2023/04/13 07:20:49;;;;;;;4.70;4.50;;;10.30;99.90;;;;;;5009647;28;20198;-69
2023/04/13 07:23:15;;;;;;;5.37;5.07;;;10.20;99.90;;;;;;5011307;28;20188;-65
2023/04/13 07:25:41;;;;;;;5.97;4.90;;;10.20;99.90;;;;;;5011228;28;20258;-67
2023/04/13 07:28:06;;;;;;;4.90;4.60;;;10.20;99.90;;;;;;4991679;28;20188;-66
2023/04/13 07:30:32;;;;;;;4.93;4.67;;;10.10;99.90;;;;;;4990833;28;20204;-66
2023/04/13 07:32:57;;;;;;;4.70;4.50;;;10.10;99.90;;;;;;5008702;28;20241;-66
2023/04/13 07:35:23;;;;;;;4.93;4.73;;;10.00;99.90;;;;;;5011096;28;20176;-66
2023/04/13 07:37:49;;;;;;;4.33;4.13;;;9.90;99.90;;;;;;4994684;28;20204;-67
2023/04/13 07:40:17;;;;;;;4.60;4.40;;;9.80;99.90;;;;;;4997839;28;20586;-67
2023/04/13 07:42:44;;;;;;;4.60;4.40;;;9.90;99.90;;;;;;5010700;28;20537;-66
2023/04/13 07:45:10;;;;;;;4.40;4.10;;;9.90;99.90;;;;;;5003866;28;20745;-65
2023/04/13 07:47:36;;;;;;;4.40;4.20;;;9.90;99.90;;;;;;4992318;28;20240;-65
2023/04/13 07:50:04;;;;;;;4.67;4.30;;;10.00;99.90;;;;;;4995255;28;20216;-65
2023/04/13 07:52:30;;;;;;;4.27;4.07;;;10.00;99.90;;;;;;4995629;28;20173;-65
2023/04/13 07:54:55;;;;;;;4.37;4.17;;;10.10;99.90;;;;;;4995782;28;20209;-65
2023/04/13 07:57:21;;;;;;;4.40;4.20;;;10.10;99.90;;;;;;4995155;28;20201;-67
2023/04/13 07:59:47;;;;;;;4.83;4.63;;;10.00;99.90;;;;;;4996171;28;20177;-66
2023/04/13 08:02:13;;;;;;;5.47;5.07;;;10.10;99.90;;;;;;5014190;28;20176;-66
2023/04/13 08:04:39;;;;;;;5.70;5.33;;;10.20;99.90;;;;;;5013801;28;20176;-67
2023/04/13 08:07:06;;;;;;;5.43;5.13;;;10.20;99.90;;;;;;5012631;28;20200;-65
2023/04/13 08:09:35;;;;;;;5.10;4.70;;;10.30;99.90;;;;;;5013936;28;20192;-65
2023/04/13 08:12:01;;;;;;;5.23;4.93;;;10.30;99.90;;;;;;4995172;28;20579;-65
2023/04/13 08:14:27;;;;;;;5.03;4.73;;;10.40;99.90;;;;;;4994200;28;20188;-65
2023/04/13 08:16:53;;;;;;;5.17;4.90;;;10.40;99.90;;;;;;4996164;28;20205;-65
2023/04/13 08:19:18;;;;;;;5.27;5.03;;;10.30;99.90;;;;;;4994806;28;20280;-65
2023/04/13 08:21:44;;;;;;;6.03;5.07;;;10.30;99.90;;;;;;5009683;28;20188;-66
2023/04/13 08:24:09;;;;;;;5.10;4.80;;;10.30;99.90;;;;;;5014613;28;20180;-67
2023/04/13 08:26:35;;;;;;;5.50;5.10;;;10.30;99.90;;;;;;5003172;28;20328;-66
2023/04/13 08:29:01;;;;;;;6.83;6.20;;;10.20;99.90;;;;;;4994314;28;20263;-66
2023/04/13 08:31:26;;;;;;;6.33;5.83;;;10.20;99.90;;;;;;5006980;28;20204;-66
2023/04/13 08:33:52;;;;;;;5.90;5.60;;;10.20;99.90;;;;;;5009157;28;20224;-66
2023/04/13 08:36:17;;;;;;;6.07;5.50;;;10.10;99.90;;;;;;5007014;28;20302;-66
2023/04/13 08:38:43;;;;;;;5.50;5.20;;;10.10;99.90;;;;;;4997327;28;20647;-66
2023/04/13 08:41:09;;;;;;;5.40;5.10;;;10.10;99.90;;;;;;4999807;28;20184;-67
2023/04/13 08:43:35;;;;;;;7.23;6.37;;;10.30;99.90;;;;;;5014493;28;20258;-66
2023/04/13 08:46:04;;;;;;;6.50;5.83;;;10.40;99.90;;;;;;5009675;28;20300;-66
2023/04/13 08:48:32;;;;;;;5.60;5.20;;;10.40;99.90;;;;;;4994748;28;20177;-64
2023/04/13 08:51:00;;;;;;;5.53;5.10;;;10.50;99.90;;;;;;4996863;28;20280;-66
2023/04/13 08:53:25;;;;;;;6.23;5.83;;;10.50;99.90;;;;;;5013816;28;20589;-64
2023/04/13 08:55:53;;;;;;;5.53;5.10;;;10.50;99.90;;;;;;5013417;28;20176;-65
2023/04/13 08:58:23;;;;;;;5.90;5.27;;;10.40;99.90;;;;;;5011434;28;20187;-65
2023/04/13 09:00:49;;;;;;;6.57;5.57;;;10.40;99.90;;;;;;5012926;28;20233;-65
2023/04/13 09:03:24;;;;;;;6.13;5.67;;;10.40;99.90;;;;;;5013694;28;20244;-65
2023/04/13 09:06:00;;;;;;;5.90;5.50;;;10.40;99.90;;;;;;5013624;28;20215;-65
2023/04/13 09:08:33;;;;;;;5.57;5.07;;;10.30;99.90;;;;;;4993974;28;20172;-65
2023/04/13 09:10:59;;;;;;;5.73;5.33;;;10.30;99.90;;;;;;4994055;28;20562;-65
2023/04/13 09:13:25;;;;;;;7.30;6.70;;;10.30;99.90;;;;;;4995158;28;20184;-65
2023/04/13 09:15:51;;;;;;;7.27;6.10;;;10.30;99.90;;;;;;4992928;28;20191;-65
2023/04/13 09:18:17;;;;;;;6.70;6.20;;;10.30;99.90;;;;;;5012261;28;20176;-65
2023/04/13 09:20:57;;;;;;;6.87;5.07;;;10.30;99.90;;;;;;5013305;28;20184;-65
2023/04/13 09:23:23;;;;;;;6.57;5.03;;;10.40;99.90;;;;;;4995000;28;20177;-65
2023/04/13 09:25:49;;;;;;;5.77;5.10;;;10.60;99.90;;;;;;4993600;28;20554;-65
2023/04/13 09:28:18;;;;;;;5.23;4.73;;;10.80;99.90;;;;;;4994933;28;20703;-65
2023/04/13 09:30:45;;;;;;;6.90;5.53;;;11.10;99.90;;;;;;4996799;28;20674;-65
2023/04/13 09:33:12;;;;;;;5.83;5.53;;;11.30;99.90;;;;;;5003016;28;20184;-64
2023/04/13 09:35:38;;;;;;;6.90;4.97;;;11.50;99.90;;;;;;4993817;28;20590;-64
2023/04/13 09:38:05;;;;;;;9.80;5.03;;;11.80;99.90;;;;;;5001319;28;20200;-64
2023/04/13 09:40:31;;;;;;;8.77;5.07;;;12.00;99.90;;;;;;5012215;28;20652;-65
2023/04/13 09:43:03;;;;;;;6.27;5.67;;;12.00;99.90;;;;;;5007649;28;20235;-66
2023/04/13 09:45:38;;;;;;;5.17;4.40;;;12.10;99.90;;;;;;4993510;28;20187;-65
2023/04/13 09:48:14;;;;;;;6.63;4.17;;;12.10;99.90;;;;;;4999757;28;20184;-64
2023/04/13 09:50:40;;;;;;;8.53;5.40;;;12.20;99.90;;;;;;5012826;28;20207;-65
2023/04/13 09:53:09;;;;;;;4.93;4.50;;;12.30;99.90;;;;;;5004415;28;20177;-67
2023/04/13 09:55:36;;;;;;;6.23;4.13;;;12.40;99.90;;;;;;4993502;28;20172;-66
2023/04/13 09:58:12;;;;;;;6.50;4.70;;;12.40;99.90;;;;;;5000457;28;20192;-65
2023/04/13 10:00:40;;;;;;;7.57;4.43;;;12.40;99.90;;;;;;5012835;28;20179;-64
2023/04/13 10:03:11;;;;;;;7.43;4.20;;;12.70;99.90;;;;;;5005154;28;20181;-64
2023/04/13 10:05:38;;;;;;;4.97;3.83;;;13.50;99.90;;;;;;5010878;28;20417;-64
2023/04/13 10:08:05;;;;;;;3.80;3.60;;;14.40;99.90;;;;;;5011868;28;20192;-65
2023/04/13 10:10:34;;;;;;;4.60;4.20;;;15.10;99.90;;;;;;5011496;28;20211;-65
2023/04/13 10:13:06;;;;;;;4.10;3.77;;;15.40;99.90;;;;;;5007212;28;20263;-65
2023/04/13 10:15:53;;;;;;;4.53;3.87;;;15.20;99.90;;;;;;4993196;28;20184;-65
2023/04/13 10:18:41;;;;;;;4.13;3.83;;;14.80;99.90;;;;;;4992663;28;20177;-65
2023/04/13 10:21:08;;;;;;;9.80;4.80;;;14.40;99.90;;;;;;4992478;28;20185;-64
2023/04/13 10:23:34;;;;;;;4.50;3.83;;;14.10;99.90;;;;;;5010297;28;20180;-63
2023/04/13 10:26:02;;;;;;;5.83;4.00;;;14.10;99.90;;;;;;5000132;28;20197;-65
2023/04/13 10:28:28;;;;;;;4.47;4.07;;;14.30;99.90;;;;;;4992915;28;20546;-65
2023/04/13 10:30:54;;;;;;;4.57;4.17;;;14.60;99.90;;;;;;5002320;28;20219;-65
2023/04/13 10:33:20;;;;;;;4.33;4.03;;;14.80;99.90;;;;;;5012068;28;20172;-65
2023/04/13 10:35:57;;;;;;;11.17;4.20;;;15.00;99.90;;;;;;5003463;28;20187;-66
2023/04/13 10:38:23;;;;;;;4.40;3.90;;;15.10;99.90;;;;;;4992604;28;20173;-64
2023/04/13 10:40:49;;;;;;;4.67;3.83;;;15.10;99.90;;;;;;4999549;28;20665;-65
2023/04/13 10:43:34;;;;;;;5.63;4.90;;;15.20;99.90;;;;;;5011822;28;20223;-65
2023/04/13 10:46:12;;;;;;;4.73;4.27;;;15.10;99.90;;;;;;5002197;28;20244;-65
2023/04/13 10:48:40;;;;;;;7.67;4.30;;;15.10;99.90;;;;;;4992661;28;20204;-65
2023/04/13 10:51:06;;;;;;;4.20;3.57;;;15.00;99.90;;;;;;5000967;28;20700;-65
2023/04/13 10:53:33;;;;;;;4.03;3.73;;;14.80;99.90;;;;;;5009804;28;20267;-65
2023/04/13 10:56:00;;;;;;;4.20;3.90;;;14.50;99.90;;;;;;5011121;28;20207;-65
2023/04/13 10:58:27;;;;;;;5.87;4.50;;;14.10;99.90;;;;;;5011976;28;20522;-64
2023/04/13 11:00:53;;;;;;;5.00;4.47;;;13.80;99.90;;;;;;4997267;28;20236;-65
2023/04/13 11:03:20;;;;;;;4.57;3.90;;;13.40;99.90;;;;;;5004001;28;20226;-65
2023/04/13 11:05:55;;;;;;;8.57;5.07;;;13.10;99.90;;;;;;5012122;28;20176;-65
2023/04/13 11:08:21;;;;;;;5.20;4.43;;;12.80;99.90;;;;;;5010220;28;20552;-68
2023/04/13 11:10:52;;;;;;;7.37;4.73;;;12.70;99.90;;;;;;5011415;28;20208;-64
2023/04/13 11:13:18;;;;;;;4.80;4.43;;;12.80;99.90;;;;;;5000939;28;20602;-66
2023/04/13 11:15:44;;;;;;;4.60;4.20;;;12.90;99.90;;;;;;4992133;28;20255;-65
2023/04/13 11:18:10;;;;;;;5.43;4.93;;;12.90;99.90;;;;;;5000704;28;20176;-65
2023/04/13 11:20:37;;;;;;;4.70;4.17;;;13.00;99.90;;;;;;5011408;28;20748;-66
2023/04/13 11:23:05;;;;;;;5.30;4.30;;;13.10;99.90;;;;;;5001378;28;20557;-65
2023/04/13 11:25:35;;;;;;;6.93;4.67;;;13.30;99.90;;;;;;5001239;28;20195;-65
2023/04/13 11:28:03;;;;;;;4.97;3.73;;;13.70;99.90;;;;;;5005069;28;20715;-65
2023/04/13 11:30:30;;;;;;;3.97;3.67;;;14.10;99.90;;;;;;4991869;28;20200;-66
2023/04/13 11:32:58;;;;;;;4.97;4.33;;;14.20;99.90;;;;;;4997892;28;20275;-66
2023/04/13 11:35:25;;;;;;;4.70;4.37;;;14.00;99.90;;;;;;5011413;28;20240;-65
2023/04/13 11:37:52;;;;;;;4.20;3.90;;;13.80;99.90;;;;;;5010123;28;20601;-66
2023/04/13 11:40:26;;;;;;;7.13;4.57;;;13.80;99.90;;;;;;5010997;28;20192;-66
2023/04/13 11:42:52;;;;;;;4.23;3.83;;;13.60;99.90;;;;;;5003918;28;20295;-65
2023/04/13 11:45:21;;;;;;;4.83;4.40;;;13.30;99.90;;;;;;4991706;28;20191;-65
2023/04/13 11:47:47;;;;;;;6.13;4.80;;;13.20;99.90;;;;;;4997739;28;20215;-65
2023/04/13 11:50:13;;;;;;;6.00;4.50;;;13.20;99.90;;;;;;5008743;28;20211;-64
2023/04/13 11:52:40;;;;;;;6.50;5.07;;;13.30;99.90;;;;;;4991866;28;20231;-64
2023/04/13 11:55:06;;;;;;;4.70;4.20;;;13.60;99.90;;;;;;4992232;28;20701;-64
2023/04/13 11:57:32;;;;;;;7.10;6.40;;;13.70;99.90;;;;;;5000908;28;20208;-65
2023/04/13 11:59:58;;;;;;;6.53;4.97;;;14.10;99.90;;;;;;5010901;28;20182;-64
2023/04/13 12:02:28;;;;;;;5.73;4.13;;;14.50;99.90;;;;;;5010576;28;20271;-64
2023/04/13 12:04:55;;;;;;;5.27;3.73;;;14.50;99.90;;;;;;5011437;28;20230;-65
2023/04/13 12:07:21;;;;;;;6.87;4.20;;;14.70;99.90;;;;;;4993176;28;20228;-64
2023/04/13 12:09:50;;;;;;;3.90;3.60;;;14.80;99.90;;;;;;4991437;28;20192;-65
2023/04/13 12:12:21;;;;;;;6.80;3.80;;;15.10;99.90;;;;;;5007500;28;20184;-65
2023/04/13 12:14:54;;;;;;;6.23;3.47;;;15.40;99.90;;;;;;5011349;28;20180;-65
2023/04/13 12:17:20;;;;;;;4.13;3.73;;;15.80;99.90;;;;;;5009526;28;20206;-65
2023/04/13 12:19:53;;;;;;;4.27;3.93;;;16.10;99.90;;;;;;4997662;28;20354;-66
2023/04/13 12:22:20;;;;;;;6.77;3.70;;;16.30;99.90;;;;;;4991787;28;20674;-65
2023/04/13 12:24:45;;;;;;;4.23;3.83;;;16.20;99.90;;;;;;4992811;28;20192;-65
2023/04/13 12:27:11;;;;;;;5.73;3.60;;;16.20;99.90;;;;;;4991488;28;20576;-66
2023/04/13 12:29:38;;;;;;;4.10;3.80;;;16.10;99.90;;;;;;5004938;28;20191;-64
2023/04/13 12:32:10;;;;;;;4.20;3.60;;;16.00;99.90;;;;;;5011087;28;20211;-64
2023/04/13 12:34:36;;;;;;;4.37;4.07;;;15.90;99.90;;;;;;5003481;28;20659;-66
2023/04/13 12:37:02;;;;;;;4.87;4.33;;;15.70;99.90;;;;;;5011659;28;20210;-66
2023/04/13 12:39:28;;;;;;;4.53;4.23;;;15.50;99.90;;;;;;5014248;28;20507;-66
2023/04/13 12:41:54;;;;;;;4.40;3.60;;;15.70;99.90;;;;;;5014577;28;20184;-66
2023/04/13 12:44:19;;;;;;;4.00;3.77;;;16.00;99.90;;;;;;5013610;28;20191;-64
2023/04/13 12:46:45;;;;;;;4.07;3.87;;;15.80;99.90;;;;;;5014620;28;20192;-66
2023/04/13 12:49:10;;;;;;;3.90;3.60;;;15.80;99.90;;;;;;5004235;28;20188;-66
2023/04/13 12:51:36;;;;;;;4.03;3.60;;;15.50;99.90;;;;;;4994594;28;20648;-65
2023/04/13 12:54:02;;;;;;;4.07;3.77;;;15.30;99.90;;;;;;5002408;28;20538;-65